createdAt,value
2018-10-19T00:00:05.934Z,100881.83
2018-10-19T00:02:34.027Z,100891.00
2018-10-19T00:05:02.151Z,100876.63
2018-10-19T00:07:30.200Z,100880.41
2018-10-19T00:09:58.286Z,100878.80
2018-10-19T00:12:26.370Z,100875.74
2018-10-19T00:14:54.445Z,100874.92
2018-10-19T00:17:22.549Z,100866.45
2018-10-19T00:19:50.620Z,100872.89
2018-10-19T00:22:18.700Z,100868.06
2018-10-19T00:24:46.768Z,100867.74
2018-10-19T00:27:14.899Z,100866.92
2018-10-19T00:29:43.214Z,100872.07
2018-10-19T00:32:11.371Z,100864.52
2018-10-19T00:34:39.451Z,100869.12
2018-10-19T00:37:07.556Z,100871.12
2018-10-19T00:39:35.627Z,100873.89
2018-10-19T00:42:03.709Z,100872.59
2018-10-19T00:44:31.788Z,100878.50
2018-10-19T00:46:59.915Z,100877.68
2018-10-19T00:49:27.942Z,100870.57
2018-10-19T00:51:56.023Z,100869.75
2018-10-19T00:54:24.091Z,100871.23
2018-10-19T00:56:52.175Z,100869.93
2018-10-19T00:59:20.239Z,100877.76
2018-10-19T01:01:48.308Z,100875.58
2018-10-19T01:04:16.393Z,100873.39
2018-10-19T01:06:44.474Z,100873.05
2018-10-19T01:09:12.593Z,100876.27
2018-10-19T01:11:40.656Z,100873.25
2018-10-19T01:14:08.752Z,100877.86
2018-10-19T01:16:36.837Z,100882.50
2018-10-19T01:19:04.954Z,100874.88
2018-10-19T01:21:33.035Z,100878.13
2018-10-19T01:24:01.127Z,100875.00
2018-10-19T01:26:29.215Z,100882.31
2018-10-19T01:28:57.322Z,100877.36
2018-10-19T01:31:25.397Z,100883.09
2018-10-19T01:33:53.591Z,100879.56
2018-10-19T01:36:25.974Z,100880.59
2018-10-19T01:38:54.392Z,100880.27
2018-10-19T01:41:22.731Z,100877.74
2018-10-19T01:43:50.586Z,100875.84
2018-10-19T01:46:18.658Z,100879.98
2018-10-19T01:48:46.760Z,100877.84
2018-10-19T01:51:14.859Z,100877.08
2018-10-19T01:53:42.931Z,100872.17
2018-10-19T01:56:11.012Z,100875.10
2018-10-19T01:58:39.104Z,100876.73
2018-10-19T02:01:07.212Z,100875.56
2018-10-19T02:03:35.354Z,100879.78
2018-10-19T02:06:03.442Z,100878.42
2018-10-19T02:08:31.535Z,100880.98
2018-10-19T02:10:59.662Z,100882.90
2018-10-19T02:13:27.849Z,100883.98
2018-10-19T02:15:55.936Z,100887.81
2018-10-19T02:18:24.038Z,100888.91
2018-10-19T02:20:52.115Z,100883.06
2018-10-19T02:23:20.251Z,100879.62
2018-10-19T02:25:48.342Z,100878.88
2018-10-19T02:28:16.431Z,100887.16
2018-10-19T02:30:44.584Z,100879.75
2018-10-19T02:33:12.699Z,100876.02
2018-10-19T02:35:40.740Z,100869.30
2018-10-19T02:38:08.869Z,100871.60
2018-10-19T02:40:37.077Z,100864.87
2018-10-19T02:43:05.644Z,100867.65
2018-10-19T02:45:34.680Z,100868.41
2018-10-19T02:48:03.354Z,100868.28
2018-10-19T02:50:31.434Z,100864.05
2018-10-19T02:52:59.552Z,100861.03
2018-10-19T02:55:27.616Z,100859.20
2018-10-19T02:57:55.696Z,100856.90
2018-10-19T03:00:23.774Z,100863.16
2018-10-19T03:02:51.848Z,100862.97
2018-10-19T03:05:19.997Z,100871.41
2018-10-19T03:07:48.070Z,100861.36
2018-10-19T03:10:16.187Z,100867.11
2018-10-19T03:12:44.269Z,100873.84
2018-10-19T03:15:12.450Z,100873.38
2018-10-19T03:17:40.454Z,100870.59
2018-10-19T03:20:09.228Z,100875.08
2018-10-19T03:22:37.908Z,100867.71
2018-10-19T03:25:06.296Z,100861.48
2018-10-19T03:27:34.459Z,100862.02
2018-10-19T03:30:02.568Z,100861.67
2018-10-19T03:32:30.654Z,100863.67
2018-10-19T03:34:58.792Z,100860.06
2018-10-19T03:37:26.918Z,100862.91
2018-10-19T03:39:54.998Z,100861.33
2018-10-19T03:42:23.130Z,100864.70
2018-10-19T03:44:51.236Z,100868.17
2018-10-19T03:47:19.376Z,100869.45
2018-10-19T03:49:47.409Z,100875.70
2018-10-19T03:52:15.503Z,100878.27
2018-10-19T03:54:43.628Z,100879.48
2018-10-19T03:57:11.778Z,100881.53
2018-10-19T03:59:39.953Z,100878.10
2018-10-19T04:02:08.080Z,100874.23
2018-10-19T04:04:36.171Z,100869.87
2018-10-19T04:07:04.459Z,100880.41
2018-10-19T04:09:32.580Z,100876.92
2018-10-19T04:12:00.670Z,100873.94
2018-10-19T04:14:29.107Z,100874.00
2018-10-19T04:16:57.212Z,100873.22
2018-10-19T04:19:25.250Z,100877.35
2018-10-19T04:21:53.362Z,100876.97
2018-10-19T04:24:21.447Z,100875.67
2018-10-19T04:26:49.525Z,100877.61
2018-10-19T04:29:17.630Z,100881.32
2018-10-19T04:31:45.675Z,100880.58
2018-10-19T04:34:13.796Z,100886.06
2018-10-19T04:36:41.874Z,100884.77
2018-10-19T04:39:10.497Z,100896.65
2018-10-19T04:41:38.925Z,100895.34
2018-10-19T04:44:07.062Z,100889.56
2018-10-19T04:46:35.354Z,100899.53
2018-10-19T04:49:03.724Z,100901.83
2018-10-19T04:51:31.905Z,100902.19
2018-10-19T04:54:00.095Z,100900.25
2018-10-19T04:56:28.186Z,100904.48
2018-10-19T04:58:56.264Z,100907.82
2018-10-19T05:01:24.326Z,100906.68
2018-10-19T05:03:52.411Z,100912.83
2018-10-19T05:06:20.573Z,100910.73
2018-10-19T05:08:48.665Z,100910.42
2018-10-19T05:11:16.807Z,100915.94
2018-10-19T05:13:44.839Z,100920.16
2018-10-19T05:16:12.910Z,100913.98
2018-10-19T05:18:41.135Z,100919.63
2018-10-19T05:21:09.211Z,100922.64
2018-10-19T05:23:37.297Z,100921.54
2018-10-19T05:26:05.898Z,100917.81
2018-10-19T05:28:33.969Z,100923.04
2018-10-19T05:31:02.130Z,100926.58
2018-10-19T05:33:30.222Z,100933.25
2018-10-19T05:35:58.291Z,100935.34
2018-10-19T05:38:26.457Z,100931.56
2018-10-19T05:40:54.541Z,100934.98
2018-10-19T05:43:22.613Z,100937.52
2018-10-19T05:45:50.672Z,100936.77
2018-10-19T05:48:18.757Z,100938.13
2018-10-19T05:50:46.824Z,100943.92
2018-10-19T05:53:14.962Z,100947.30
2018-10-19T05:55:43.210Z,100949.02
2018-10-19T05:58:11.342Z,100952.05
2018-10-19T06:00:39.407Z,100952.40
2018-10-19T06:03:07.510Z,100953.63
2018-10-19T06:05:35.664Z,100960.33
2018-10-19T06:08:03.763Z,100960.69
2018-10-19T06:10:31.895Z,100960.62
2018-10-19T06:12:59.947Z,100956.48
2018-10-19T06:15:28.041Z,100962.65
2018-10-19T06:17:56.231Z,100962.11
2018-10-19T06:20:24.329Z,100967.42
2018-10-19T06:22:52.639Z,100965.02
2018-10-19T06:25:20.768Z,100962.87
2018-10-19T06:27:48.863Z,100967.08
2018-10-19T06:30:16.952Z,100973.88
2018-10-19T06:32:45.038Z,100976.94
2018-10-19T06:35:13.172Z,100977.67
2018-10-19T06:37:41.223Z,100974.35
2018-10-19T06:40:09.315Z,100975.02
2018-10-19T06:42:37.400Z,100979.79
2018-10-19T06:45:06.213Z,100980.39
2018-10-19T06:47:34.299Z,100976.14
2018-10-19T06:50:02.499Z,100973.36
2018-10-19T06:52:30.575Z,100980.03
2018-10-19T06:54:58.668Z,100980.85
2018-10-19T06:57:26.767Z,100986.61
2018-10-19T06:59:54.911Z,100981.58
2018-10-19T07:02:22.993Z,100988.72
2018-10-19T07:04:51.088Z,100991.38
2018-10-19T07:07:19.177Z,100991.86
2018-10-19T07:09:47.317Z,100994.98
2018-10-19T07:12:15.495Z,100994.35
2018-10-19T07:14:43.491Z,100996.94
2018-10-19T07:17:11.620Z,100999.13
2018-10-19T07:19:39.640Z,100997.47
2018-10-19T07:22:07.723Z,100994.34
2018-10-19T07:24:36.064Z,100992.97
2018-10-19T07:27:04.365Z,100994.68
2018-10-19T07:29:32.535Z,100993.45
2018-10-19T07:32:00.569Z,100997.35
2018-10-19T07:34:28.646Z,100994.89
2018-10-19T07:36:56.732Z,100998.02
2018-10-19T07:39:24.847Z,100993.27
2018-10-19T07:41:52.991Z,101001.27
2018-10-19T07:44:21.012Z,101002.50
2018-10-19T07:46:49.098Z,101008.12
2018-10-19T07:49:17.260Z,100986.30
2018-10-19T07:51:45.347Z,101005.34
2018-10-19T07:54:13.445Z,101007.05
2018-10-19T07:56:41.539Z,101011.78
2018-10-19T07:59:09.690Z,101016.45
2018-10-19T08:01:37.722Z,101018.53
2018-10-19T08:04:05.916Z,101012.78
2018-10-19T08:06:34.004Z,101012.65
2018-10-19T08:09:02.088Z,101012.96
2018-10-19T08:11:30.243Z,101016.02
2018-10-19T08:13:58.293Z,101015.72
2018-10-19T08:16:26.335Z,101010.78
2018-10-19T08:18:54.442Z,101013.06
2018-10-19T08:21:22.528Z,101012.20
2018-10-19T08:23:50.599Z,101019.11
2018-10-19T08:26:18.824Z,101012.97
2018-10-19T08:28:46.828Z,101013.47
2018-10-19T08:31:14.904Z,101013.45
2018-10-19T08:33:42.984Z,101009.96
2018-10-19T08:36:11.068Z,101002.41
2018-10-19T08:38:39.163Z,101003.37
2018-10-19T08:41:07.301Z,101004.59
2018-10-19T08:43:35.478Z,101006.91
2018-10-19T08:46:08.860Z,101003.70
2018-10-19T08:48:37.000Z,101005.55
2018-10-19T08:51:05.305Z,101001.45
2018-10-19T08:53:33.676Z,101000.09
2018-10-19T08:56:01.628Z,100998.88
2018-10-19T08:58:29.903Z,100997.52
2018-10-19T09:00:57.970Z,100996.06
2018-10-19T09:03:26.083Z,101000.47
2018-10-19T09:05:54.203Z,101001.50
2018-10-19T09:08:22.242Z,100992.93
2018-10-19T09:10:50.397Z,101003.61
2018-10-19T09:13:18.488Z,101004.31
2018-10-19T09:15:46.556Z,101009.48
2018-10-19T09:18:14.636Z,101001.20
2018-10-19T09:20:42.721Z,100990.41
2018-10-19T09:23:10.871Z,100996.82
2018-10-19T09:25:38.944Z,100992.80
2018-10-19T09:28:07.030Z,100992.18
2018-10-19T09:30:35.231Z,100983.77
2018-10-19T09:33:03.335Z,100985.20
2018-10-19T09:35:31.433Z,100979.97
2018-10-19T09:37:59.480Z,100979.55
2018-10-19T09:40:27.739Z,100983.23
2018-10-19T09:42:55.905Z,100977.45
2018-10-19T09:45:23.943Z,100981.34
2018-10-19T09:47:52.031Z,100977.09
2018-10-19T09:50:20.115Z,100977.63
2018-10-19T09:52:48.195Z,100979.85
2018-10-19T09:55:16.423Z,100975.65
2018-10-19T09:57:44.461Z,100976.30
2018-10-19T10:00:18.309Z,100968.95
2018-10-19T10:02:46.945Z,100975.29
2018-10-19T10:07:43.144Z,100976.60
2018-10-19T10:10:11.207Z,100972.05
2018-10-19T10:12:39.287Z,100970.45
2018-10-19T10:15:07.626Z,100969.39
2018-10-19T10:17:35.716Z,100971.09
2018-10-19T10:20:03.824Z,100966.27
2018-10-19T10:22:31.907Z,100966.38
2018-10-19T10:25:00.049Z,100966.16
2018-10-19T10:27:28.143Z,100970.19
2018-10-19T10:29:56.246Z,100968.42
2018-10-19T10:32:24.409Z,100969.31
2018-10-19T10:34:52.423Z,100970.59
2018-10-19T10:37:20.509Z,100970.28
2018-10-19T10:39:48.603Z,100962.27
2018-10-19T10:42:16.690Z,100966.28
2018-10-19T10:44:44.783Z,100964.02
2018-10-19T10:47:12.871Z,100959.14
2018-10-19T10:49:40.967Z,100959.88
2018-10-19T10:52:09.134Z,100956.38
2018-10-19T10:54:37.146Z,100955.99
2018-10-19T10:57:05.610Z,100947.58
2018-10-19T10:59:33.726Z,100949.71
2018-10-19T11:02:01.809Z,100948.38
2018-10-19T11:04:29.899Z,100951.39
2018-10-19T11:06:58.040Z,100945.68
2018-10-19T11:09:26.072Z,100950.97
2018-10-19T11:11:54.263Z,100946.86
2018-10-19T11:14:22.334Z,100940.69
2018-10-19T11:16:50.411Z,100935.75
2018-10-19T11:19:18.494Z,100939.92
2018-10-19T11:21:46.918Z,100935.61
2018-10-19T11:24:14.991Z,100934.53
2018-10-19T11:26:43.089Z,100930.91
2018-10-19T11:29:11.155Z,100924.80
2018-10-19T11:31:39.236Z,100921.47
2018-10-19T11:34:07.392Z,100921.66
2018-10-19T11:36:35.431Z,100913.14
2018-10-19T11:39:04.279Z,100918.22
2018-10-19T11:41:32.362Z,100911.45
2018-10-19T11:44:00.433Z,100906.96
2018-10-19T11:46:28.519Z,100906.95
2018-10-19T11:48:56.698Z,100906.84
2018-10-19T11:51:24.936Z,100908.58
2018-10-19T11:53:52.970Z,100901.53
2018-10-19T11:56:21.107Z,100898.77
2018-10-19T11:58:49.179Z,100905.43
2018-10-19T12:01:17.255Z,100894.77
2018-10-19T12:03:45.425Z,100899.98
2018-10-19T12:06:13.416Z,100898.17
2018-10-19T12:08:41.503Z,100891.45
2018-10-19T12:11:09.599Z,100895.25
2018-10-19T12:13:37.723Z,100894.77
2018-10-19T12:16:06.278Z,100890.05
2018-10-19T12:18:34.318Z,100883.05
2018-10-19T12:21:02.481Z,100883.17
2018-10-19T12:23:30.509Z,100881.30
2018-10-19T12:25:58.747Z,100871.67
2018-10-19T12:28:26.788Z,100873.43
2018-10-19T12:30:54.919Z,100866.86
2018-10-19T12:33:22.949Z,100870.54
2018-10-19T12:35:51.077Z,100872.19
2018-10-19T12:38:19.166Z,100864.27
2018-10-19T12:40:47.525Z,100864.69
2018-10-19T12:43:15.659Z,100864.20
2018-10-19T12:46:18.103Z,100867.22
2018-10-19T12:48:46.312Z,100866.19
2018-10-19T12:51:14.459Z,100855.78
2018-10-19T12:53:42.470Z,100858.05
2018-10-19T12:56:10.555Z,100845.00
2018-10-19T12:58:38.654Z,100851.69
2018-10-19T13:01:06.781Z,100849.66
2018-10-19T13:03:34.889Z,100850.08
2018-10-19T13:06:02.994Z,100844.46
2018-10-19T13:08:31.128Z,100841.05
2018-10-19T13:10:59.326Z,100842.92
2018-10-19T13:13:27.416Z,100836.92
2018-10-19T13:15:55.505Z,100833.41
2018-10-19T13:18:23.792Z,100831.77
2018-10-19T13:20:51.919Z,100830.98
2018-10-19T13:23:20.019Z,100832.89
2018-10-19T13:25:48.174Z,100836.63
2018-10-19T13:28:16.802Z,100830.41
2018-10-19T13:30:45.187Z,100827.00
2018-10-19T13:33:13.936Z,100832.02
2018-10-19T13:35:42.153Z,100826.78
2018-10-19T13:38:10.273Z,100826.17
2018-10-19T13:40:38.347Z,100821.80
2018-10-19T13:43:06.510Z,100822.11
2018-10-19T13:45:34.889Z,100828.98
2018-10-19T13:48:03.020Z,100824.56
2018-10-19T13:50:31.012Z,100829.44
2018-10-19T13:52:59.163Z,100829.77
2018-10-19T13:55:27.355Z,100819.27
2018-10-19T13:57:55.921Z,100826.29
2018-10-19T14:00:24.304Z,100828.16
2018-10-19T14:02:52.379Z,100827.00
2018-10-19T14:05:20.497Z,100825.30
2018-10-19T14:07:48.566Z,100824.05
2018-10-19T14:10:16.671Z,100831.70
2018-10-19T14:12:44.748Z,100827.75
2018-10-19T14:15:12.854Z,100820.88
2018-10-19T14:17:41.627Z,100824.34
2018-10-19T14:20:11.432Z,100822.84
2018-10-19T14:22:39.707Z,100829.19
2018-10-19T14:25:09.118Z,100829.94
2018-10-19T14:27:38.528Z,100824.95
2018-10-19T14:30:09.746Z,100822.16
2018-10-19T14:32:38.265Z,100818.66
2018-10-19T14:35:06.787Z,100825.61
2018-10-19T14:37:35.426Z,100820.15
2018-10-19T14:40:03.512Z,100812.58
2018-10-19T14:42:31.605Z,100815.66
2018-10-19T14:44:59.711Z,100818.34
2018-10-19T14:47:27.894Z,100818.12
2018-10-19T14:49:56.007Z,100813.73
2018-10-19T14:52:24.122Z,100820.25
2018-10-19T14:54:52.194Z,100822.72
2018-10-19T14:57:20.297Z,100828.30
2018-10-19T14:59:48.444Z,100831.16
2018-10-19T15:02:16.519Z,100824.06
2018-10-19T15:04:44.587Z,100824.23
2018-10-19T15:07:12.683Z,100827.83
2018-10-19T15:09:40.909Z,100832.03
2018-10-19T15:12:09.232Z,100832.63
2018-10-19T15:14:37.659Z,100828.38
2018-10-19T15:17:06.226Z,100826.94
2018-10-19T15:19:34.362Z,100830.61
2018-10-19T15:22:02.461Z,100827.30
2018-10-19T15:24:30.580Z,100838.14
2018-10-19T15:26:58.804Z,100836.45
2018-10-19T15:29:27.093Z,100831.80
2018-10-19T15:31:55.224Z,100837.78
2018-10-19T15:34:23.405Z,100834.58
2018-10-19T15:36:51.488Z,100840.56
2018-10-19T15:39:19.584Z,100838.27
2018-10-19T15:41:47.715Z,100845.47
2018-10-19T15:44:15.811Z,100838.45
2018-10-19T15:46:43.895Z,100841.64
2018-10-19T15:49:11.987Z,100842.47
2018-10-19T15:51:40.079Z,100842.23
2018-10-19T15:54:08.241Z,100839.05
2018-10-19T15:56:36.366Z,100837.83
2018-10-19T15:59:04.643Z,100848.31
2018-10-19T16:01:32.731Z,100840.75
2018-10-19T16:04:00.822Z,100843.99
2018-10-19T16:06:28.923Z,100841.42
2018-10-19T16:08:57.084Z,100836.95
2018-10-19T16:11:25.656Z,100841.55
2018-10-19T16:13:54.749Z,100833.81
2018-10-19T16:16:22.963Z,100846.27
2018-10-19T16:18:51.086Z,100847.67
2018-10-19T16:21:19.179Z,100850.53
2018-10-19T16:23:47.452Z,100850.16
2018-10-19T16:26:15.561Z,100854.37
2018-10-19T16:28:43.655Z,100860.84
2018-10-19T16:31:11.964Z,100862.70
2018-10-19T16:33:39.943Z,100860.95
2018-10-19T16:36:08.128Z,100869.17
2018-10-19T16:38:36.162Z,100858.72
2018-10-19T16:41:04.488Z,100858.72
2018-10-19T16:43:32.572Z,100864.55
2018-10-19T16:46:00.662Z,100867.69
2018-10-19T16:48:28.752Z,100862.69
2018-10-19T16:50:56.883Z,100864.81
2018-10-19T16:53:24.933Z,100875.75
2018-10-19T16:55:53.104Z,100877.50
2018-10-19T16:58:21.194Z,100877.89
2018-10-19T17:00:49.287Z,100876.88
2018-10-19T17:03:17.396Z,100880.39
2018-10-19T17:05:45.458Z,100886.11
2018-10-19T17:08:13.540Z,100883.27
2018-10-19T17:10:41.639Z,100889.12
2018-10-19T17:13:09.789Z,100897.09
2018-10-19T17:15:37.879Z,100896.50
2018-10-19T17:18:06.234Z,100899.52
2018-10-19T17:20:34.274Z,100901.14
2018-10-19T17:23:02.399Z,100901.42
2018-10-19T17:25:30.565Z,100915.34
2018-10-19T17:27:58.735Z,100923.78
2018-10-19T17:30:26.844Z,100926.40
2018-10-19T17:32:55.014Z,100922.15
2018-10-19T17:35:23.000Z,100925.16
2018-10-19T17:37:51.087Z,100937.22
2018-10-19T17:40:19.187Z,100946.16
2018-10-19T17:42:47.281Z,100949.66
2018-10-19T17:45:15.522Z,100948.05
2018-10-19T17:47:43.551Z,100952.30
2018-10-19T17:50:12.148Z,100954.34
2018-10-19T17:52:40.226Z,100956.94
2018-10-19T17:55:09.614Z,100963.52
2018-10-19T17:57:38.197Z,100964.34
2018-10-19T18:00:07.845Z,100965.58
2018-10-19T18:02:35.874Z,100968.95
2018-10-19T18:05:04.059Z,100976.80
2018-10-19T18:07:32.144Z,100964.71
2018-10-19T18:10:00.240Z,100969.92
2018-10-19T18:12:28.344Z,100974.20
2018-10-19T18:14:56.473Z,100978.86
2018-10-19T18:17:24.541Z,100981.33
2018-10-19T18:19:52.632Z,100985.13
2018-10-19T18:22:20.982Z,100997.16
2018-10-19T18:24:48.798Z,100997.30
2018-10-19T18:27:16.895Z,101004.71
2018-10-19T18:29:44.979Z,101007.26
2018-10-19T18:32:13.152Z,101006.89
2018-10-19T18:34:41.156Z,101010.28
2018-10-19T18:37:09.263Z,101007.41
2018-10-19T18:39:38.253Z,101013.00
2018-10-19T18:42:06.452Z,100986.68
2018-10-19T18:44:34.538Z,101015.17
2018-10-19T18:47:02.757Z,101019.03
2018-10-19T18:49:30.769Z,101021.50
2018-10-19T18:51:58.870Z,101016.37
2018-10-19T18:54:26.959Z,101027.48
2018-10-19T18:56:55.066Z,101028.14
2018-10-19T18:59:23.147Z,101028.28
2018-10-19T19:01:51.230Z,101031.66
2018-10-19T19:04:19.323Z,101035.01
2018-10-19T19:06:47.459Z,101035.96
2018-10-19T19:09:15.552Z,101034.77
2018-10-19T19:11:43.644Z,101031.78
2018-10-19T19:14:11.802Z,101035.94
2018-10-19T19:16:39.827Z,101046.53
2018-10-19T19:19:07.940Z,101048.58
2018-10-19T19:21:36.209Z,101052.91
2018-10-19T19:24:09.767Z,101057.20
2018-10-19T19:26:37.854Z,101060.64
2018-10-19T19:29:06.006Z,101066.22
2018-10-19T19:31:34.051Z,101065.44
2018-10-19T19:34:07.534Z,101068.70
2018-10-19T19:36:35.628Z,101063.80
2018-10-19T19:39:04.163Z,101072.68
2018-10-19T19:41:37.726Z,101078.13
2018-10-19T19:44:05.844Z,101075.53
2018-10-19T19:46:33.908Z,101071.99
2018-10-19T19:49:07.445Z,101067.13
2018-10-19T19:51:35.422Z,101063.58
2018-10-19T19:54:03.525Z,101077.87
2018-10-19T19:56:31.608Z,101071.70
2018-10-19T19:58:59.733Z,101074.99
2018-10-19T20:01:27.780Z,101077.87
2018-10-19T20:03:55.879Z,101091.63
2018-10-19T20:06:24.069Z,101098.55
2018-10-19T20:08:52.093Z,101102.33
2018-10-19T20:11:20.168Z,101100.61
2018-10-19T20:13:48.252Z,101102.45
2018-10-19T20:16:16.461Z,101112.99
2018-10-19T20:18:44.561Z,101111.73
2018-10-19T20:21:12.595Z,101116.34
2018-10-19T20:23:40.753Z,101123.22
2018-10-19T20:26:08.879Z,101132.48
2018-10-19T20:28:36.918Z,101126.75
2018-10-19T20:31:04.995Z,101129.60
2018-10-19T20:33:33.180Z,101122.48
2018-10-19T20:36:01.216Z,101124.44
2018-10-19T20:38:29.288Z,101130.41
2018-10-19T20:40:57.471Z,101134.12
2018-10-19T20:43:25.451Z,101138.73
2018-10-19T20:45:53.637Z,101141.71
2018-10-19T20:48:21.853Z,101138.87
2018-10-19T20:50:50.115Z,101136.88
2018-10-19T20:53:18.202Z,101137.99
2018-10-19T20:55:46.336Z,101135.88
2018-10-19T20:58:15.306Z,101132.05
2018-10-19T21:00:43.401Z,101136.36
2018-10-19T21:03:11.461Z,101142.88
2018-10-19T21:05:39.548Z,101135.84
2018-10-19T21:08:07.685Z,101138.34
2018-10-19T21:10:35.736Z,101140.78
2018-10-19T21:13:03.823Z,101132.48
2018-10-19T21:15:32.024Z,101132.80
2018-10-19T21:18:00.102Z,101126.75
2018-10-19T21:20:28.196Z,101122.91
2018-10-19T21:22:56.339Z,101128.70
2018-10-19T21:25:24.373Z,101121.41
2018-10-19T21:27:52.455Z,101122.84
2018-10-19T21:30:20.551Z,101124.68
2018-10-19T21:32:48.633Z,101120.75
2018-10-19T21:35:16.748Z,101122.66
2018-10-19T21:37:44.879Z,101120.95
2018-10-19T21:40:12.958Z,101126.34
2018-10-19T21:42:41.059Z,101124.44
2018-10-19T21:45:09.431Z,101130.12
2018-10-19T21:47:37.563Z,101135.92
2018-10-19T21:50:06.878Z,101131.19
2018-10-19T21:52:34.900Z,101131.54
2018-10-19T21:55:02.983Z,101133.72
2018-10-19T21:57:31.075Z,101131.95
2018-10-19T21:59:59.159Z,101138.28
2018-10-19T22:02:27.374Z,101135.91
2018-10-19T22:04:55.380Z,101133.18
2018-10-19T22:07:23.530Z,101129.09
2018-10-19T22:09:51.649Z,101129.56
2018-10-19T22:12:19.751Z,101128.41
2018-10-19T22:14:47.835Z,101124.95
2018-10-19T22:17:15.959Z,101128.77
2018-10-19T22:19:44.043Z,101122.12
2018-10-19T22:22:12.139Z,101117.34
2018-10-19T22:24:40.231Z,101121.08
2018-10-19T22:27:08.317Z,101124.69
2018-10-19T22:29:36.415Z,101122.06
2018-10-19T22:32:04.572Z,101118.05
2018-10-19T22:34:32.712Z,101124.03
2018-10-19T22:37:00.812Z,101123.38
2018-10-19T22:39:28.856Z,101117.27
2018-10-19T22:41:56.939Z,101117.23
2018-10-19T22:44:25.028Z,101124.52
2018-10-19T22:46:53.129Z,101122.20
2018-10-19T22:49:21.226Z,101120.77
2018-10-19T22:51:49.413Z,101123.00
2018-10-19T22:54:17.499Z,101128.66
2018-10-19T22:56:45.826Z,101125.23
2018-10-19T22:59:14.050Z,101126.33
2018-10-19T23:01:41.972Z,101126.92
2018-10-19T23:04:10.062Z,101133.88
2018-10-19T23:06:38.222Z,101134.88
2018-10-19T23:09:07.905Z,101099.69
2018-10-19T23:11:36.024Z,101143.05
2018-10-19T23:14:04.260Z,101129.44
2018-10-19T23:16:32.358Z,101134.41
2018-10-19T23:19:00.644Z,101135.83
2018-10-19T23:21:28.733Z,101140.44
2018-10-19T23:23:56.801Z,101138.70
2018-10-19T23:26:25.219Z,101139.64
2018-10-19T23:28:53.324Z,101148.69
2018-10-19T23:31:21.467Z,101151.79
2018-10-19T23:33:49.518Z,101147.66
2018-10-19T23:36:17.599Z,101144.88
2018-10-19T23:38:45.687Z,101148.84
2018-10-19T23:41:13.847Z,101153.80
2018-10-19T23:43:41.914Z,101152.30
2018-10-19T23:46:09.965Z,101153.13
2018-10-19T23:48:38.048Z,101153.89
2018-10-19T23:51:06.628Z,101152.44
2018-10-19T23:53:34.760Z,101156.52
2018-10-19T23:56:02.849Z,101162.44
2018-10-19T23:58:30.925Z,101174.77
